Time;durP1;ratioP1;P1;durP2;ratioP2;P2;SDS_P1;SDS_P2;PMS_P1;PMS_P2;Temp;Humidity;BMP_temperature;BMP_pressure;BME280_temperature;BME280_humidity;BME280_pressure;Samples;Min_cycle;Max_cycle;Signal;HPM_P1;HPM_P2
2022/08/03 00:01:34;;;;;;;9.68;3.47;;;;;;;;;;4967810;28;20027;-89
2022/08/03 00:04:00;;;;;;;12.30;3.63;;;;;;;;;;4967753;28;20695;-88
2022/08/03 00:06:26;;;;;;;11.68;3.17;;;;;;;;;;4966801;28;20019;-88
2022/08/03 00:08:52;;;;;;;11.05;3.17;;;;;;;;;;4974297;28;20033;-88
2022/08/03 00:11:19;;;;;;;12.35;3.75;;;;;;;;;;5041065;28;20085;-88
2022/08/03 00:13:45;;;;;;;12.63;2.92;;;;;;;;;;5034386;28;20033;-89
2022/08/03 00:16:12;;;;;;;10.90;2.60;;;;;;;;;;4970408;28;20109;-89
2022/08/03 00:18:38;;;;;;;12.75;2.72;;;;;;;;;;5053179;28;20035;-88
2022/08/03 00:21:04;;;;;;;14.48;4.00;;;;;;;;;;5047857;28;20637;-88
2022/08/03 00:23:30;;;;;;;12.63;3.35;;;;;;;;;;4968467;28;20125;-88
2022/08/03 00:25:56;;;;;;;6.72;2.85;;;;;;;;;;5031974;28;20118;-88
2022/08/03 00:28:22;;;;;;;8.23;2.80;;;;;;;;;;5034532;28;20030;-88
2022/08/03 00:30:48;;;;;;;17.25;3.00;;;;;;;;;;4967239;28;20042;-90
2022/08/03 00:33:14;;;;;;;11.13;3.00;;;;;;;;;;4962860;28;20035;-88
2022/08/03 00:35:40;;;;;;;12.77;3.25;;;;;;;;;;5034692;28;20034;-87
2022/08/03 00:38:06;;;;;;;8.65;2.90;;;;;;;;;;5032577;28;20018;-88
2022/08/03 00:40:33;;;;;;;8.98;2.58;;;;;;;;;;4966414;28;20805;-88
2022/08/03 00:43:02;;;;;;;11.13;3.05;;;;;;;;;;4963632;28;20119;-88
2022/08/03 00:45:31;;;;;;;12.02;3.17;;;;;;;;;;4966490;28;20046;-88
2022/08/03 00:47:57;;;;;;;10.35;2.85;;;;;;;;;;4965581;28;20403;-89
2022/08/03 00:50:24;;;;;;;14.85;3.00;;;;;;;;;;4966648;28;20062;-88
2022/08/03 00:52:52;;;;;;;12.52;2.92;;;;;;;;;;4966386;28;20034;-87
2022/08/03 00:55:18;;;;;;;9.02;2.63;;;;;;;;;;5033773;28;20069;-89
2022/08/03 00:57:45;;;;;;;14.25;3.17;;;;;;;;;;4967007;28;20027;-88
2022/08/03 01:00:11;;;;;;;15.70;3.85;;;;;;;;;;5031955;28;20146;-88
2022/08/03 01:02:38;;;;;;;9.25;3.65;;;;;;;;;;5061841;28;20030;-88
2022/08/03 01:05:04;;;;;;;15.30;4.95;;;;;;;;;;5064233;28;20054;-89
2022/08/03 01:07:34;;;;;;;12.13;3.10;;;;;;;;;;4970743;28;20065;-89
2022/08/03 01:10:00;;;;;;;12.43;3.83;;;;;;;;;;4966561;28;20035;-90
2022/08/03 01:12:32;;;;;;;8.32;2.97;;;;;;;;;;4964907;28;20041;-88
2022/08/03 01:15:19;;;;;;;13.60;3.28;;;;;;;;;;4968615;28;20019;-88
2022/08/03 01:17:56;;;;;;;13.43;3.58;;;;;;;;;;4972559;28;20027;-88
2022/08/03 01:20:23;;;;;;;12.82;3.72;;;;;;;;;;4967478;28;20026;-89
2022/08/03 01:23:08;;;;;;;16.17;3.95;;;;;;;;;;4965042;28;20041;-88
2022/08/03 01:25:41;;;;;;;17.38;4.32;;;;;;;;;;4973855;28;20038;-88
2022/08/03 01:28:13;;;;;;;15.70;4.03;;;;;;;;;;4967383;28;20398;-89
2022/08/03 01:30:43;;;;;;;14.88;4.35;;;;;;;;;;4965732;28;20031;-88
2022/08/03 01:33:13;;;;;;;17.73;5.90;;;;;;;;;;4963216;28;20056;-87
2022/08/03 01:35:53;;;;;;;20.80;4.83;;;;;;;;;;4965164;28;20030;-88
2022/08/03 01:38:32;;;;;;;15.07;5.27;;;;;;;;;;5046248;28;20290;-89
2022/08/03 01:41:02;;;;;;;15.77;4.95;;;;;;;;;;4963299;28;20289;-90
2022/08/03 01:43:29;;;;;;;22.30;4.25;;;;;;;;;;4974421;28;20039;-88
2022/08/03 01:45:56;;;;;;;20.42;4.70;;;;;;;;;;5032497;28;20506;-89
2022/08/03 01:48:22;;;;;;;11.85;3.92;;;;;;;;;;4966931;28;20488;-87
2022/08/03 01:50:48;;;;;;;20.50;4.68;;;;;;;;;;4966172;28;20057;-88
2022/08/03 01:53:18;;;;;;;18.63;4.70;;;;;;;;;;4968311;28;20469;-88
2022/08/03 01:55:46;;;;;;;16.65;4.45;;;;;;;;;;4966007;28;20027;-88
2022/08/03 01:58:13;;;;;;;16.75;5.88;;;;;;;;;;4966886;28;20459;-87
2022/08/03 02:00:40;;;;;;;13.98;5.47;;;;;;;;;;4960872;28;20103;-87
2022/08/03 02:03:08;;;;;;;15.50;4.50;;;;;;;;;;4962329;28;20037;-87
2022/08/03 02:05:34;;;;;;;17.98;6.47;;;;;;;;;;4965303;28;20105;-87
2022/08/03 02:08:01;;;;;;;18.02;5.93;;;;;;;;;;4965987;28;20038;-89
2022/08/03 02:10:28;;;;;;;14.00;5.07;;;;;;;;;;4965146;28;20039;-89
2022/08/03 02:12:55;;;;;;;13.63;5.80;;;;;;;;;;4967544;28;20031;-88
2022/08/03 02:15:21;;;;;;;17.75;5.72;;;;;;;;;;4964839;28;20050;-88
2022/08/03 02:17:48;;;;;;;15.27;5.68;;;;;;;;;;4966726;28;20035;-89
2022/08/03 02:20:14;;;;;;;13.93;5.60;;;;;;;;;;5034453;28;20030;-89
2022/08/03 02:22:41;;;;;;;19.55;6.10;;;;;;;;;;5034367;28;20464;-87
2022/08/03 02:25:11;;;;;;;17.33;5.88;;;;;;;;;;4966548;28;20042;-87
2022/08/03 02:27:48;;;;;;;17.58;5.22;;;;;;;;;;5050686;28;20160;-87
2022/08/03 02:30:14;;;;;;;13.23;5.38;;;;;;;;;;4968571;28;20127;-87
2022/08/03 02:32:43;;;;;;;20.63;6.38;;;;;;;;;;5028900;28;20035;-88
2022/08/03 02:35:12;;;;;;;21.20;6.50;;;;;;;;;;5033113;28;20022;-88
2022/08/03 02:37:41;;;;;;;16.85;6.13;;;;;;;;;;4965347;28;20434;-89
2022/08/03 02:40:10;;;;;;;17.70;5.78;;;;;;;;;;5036038;28;20101;-88
2022/08/03 02:42:37;;;;;;;22.45;5.00;;;;;;;;;;5066479;28;20058;-87
2022/08/03 02:45:06;;;;;;;12.65;4.72;;;;;;;;;;4965799;28;20547;-86
2022/08/03 02:47:33;;;;;;;22.90;5.43;;;;;;;;;;4964786;28;20027;-88
2022/08/03 02:50:18;;;;;;;14.35;5.05;;;;;;;;;;5018054;28;20062;-89
2022/08/03 02:52:45;;;;;;;22.25;4.80;;;;;;;;;;5038506;28;20074;-88
2022/08/03 02:55:11;;;;;;;17.90;5.03;;;;;;;;;;5038257;28;20031;-88
2022/08/03 02:57:37;;;;;;;19.63;4.72;;;;;;;;;;4971358;28;20058;-88
2022/08/03 03:00:04;;;;;;;23.02;4.75;;;;;;;;;;5037894;28;20560;-88
2022/08/03 03:02:30;;;;;;;23.65;5.22;;;;;;;;;;4969346;28;20071;-87
2022/08/03 03:04:56;;;;;;;20.13;5.50;;;;;;;;;;4967987;28;20387;-87
2022/08/03 03:07:23;;;;;;;17.98;5.43;;;;;;;;;;4966444;28;20487;-87
2022/08/03 03:09:49;;;;;;;21.67;5.45;;;;;;;;;;4966652;28;20035;-88
2022/08/03 03:12:16;;;;;;;22.45;5.63;;;;;;;;;;5031785;28;20391;-88
2022/08/03 03:14:42;;;;;;;19.70;5.18;;;;;;;;;;4967639;28;20407;-88
2022/08/03 03:17:09;;;;;;;22.45;5.28;;;;;;;;;;5048228;28;20395;-87
2022/08/03 03:19:39;;;;;;;22.00;5.47;;;;;;;;;;4967509;28;20459;-88
2022/08/03 03:22:05;;;;;;;19.10;6.72;;;;;;;;;;5033903;28;20104;-88
2022/08/03 03:24:32;;;;;;;19.63;7.13;;;;;;;;;;5035298;28;20027;-88
2022/08/03 03:26:58;;;;;;;17.58;6.00;;;;;;;;;;4966941;28;20057;-89
2022/08/03 03:29:24;;;;;;;20.27;5.57;;;;;;;;;;4967427;28;20043;-88
2022/08/03 03:31:50;;;;;;;19.13;6.00;;;;;;;;;;4967513;28;20041;-88
2022/08/03 03:34:17;;;;;;;20.63;5.68;;;;;;;;;;5050199;28;20023;-88
2022/08/03 03:36:43;;;;;;;18.98;6.13;;;;;;;;;;4968471;28;20473;-88
2022/08/03 03:39:09;;;;;;;18.77;6.18;;;;;;;;;;4966787;28;20142;-88
2022/08/03 03:41:36;;;;;;;24.33;6.70;;;;;;;;;;4968344;28;20034;-87
2022/08/03 03:44:02;;;;;;;26.67;6.38;;;;;;;;;;5040317;28;20460;-89
2022/08/03 03:46:28;;;;;;;22.45;5.85;;;;;;;;;;4967580;28;20026;-88
2022/08/03 03:48:54;;;;;;;19.60;7.45;;;;;;;;;;4964210;28;20364;-88
2022/08/03 03:51:20;;;;;;;19.05;5.95;;;;;;;;;;4964853;28;20041;-88
2022/08/03 03:53:59;;;;;;;12.10;5.50;;;;;;;;;;4964251;28;20162;-88
2022/08/03 03:56:25;;;;;;;26.15;8.05;;;;;;;;;;4967317;28;20110;-88
2022/08/03 03:58:51;;;;;;;25.90;6.10;;;;;;;;;;4966734;28;20107;-87
2022/08/03 04:01:17;;;;;;;25.58;6.68;;;;;;;;;;4963663;28;20038;-87
2022/08/03 04:03:43;;;;;;;27.05;6.78;;;;;;;;;;4967217;28;20035;-87
2022/08/03 04:12:00;;;;;;;25.60;6.07;;;;;;;;;;4966315;28;20112;-87
2022/08/03 04:14:32;;;;;;;25.30;7.00;;;;;;;;;;4965946;28;20380;-87
2022/08/03 04:16:59;;;;;;;30.92;7.00;;;;;;;;;;4967606;28;20104;-87
2022/08/03 04:19:31;;;;;;;20.15;5.43;;;;;;;;;;4967104;28;20030;-88
2022/08/03 04:21:58;;;;;;;19.00;5.75;;;;;;;;;;4967485;28;20035;-87
2022/08/03 04:24:26;;;;;;;17.35;5.97;;;;;;;;;;4967938;28;20034;-88
2022/08/03 04:26:54;;;;;;;23.05;6.53;;;;;;;;;;4965128;28;20501;-88
2022/08/03 04:29:21;;;;;;;21.20;6.13;;;;;;;;;;4969172;28;20030;-87
2022/08/03 04:31:48;;;;;;;23.30;5.22;;;;;;;;;;4964488;28;20040;-87
2022/08/03 04:34:14;;;;;;;21.92;6.13;;;;;;;;;;4965182;28;20396;-88
2022/08/03 04:36:45;;;;;;;27.20;5.78;;;;;;;;;;4952332;28;20116;-87
2022/08/03 04:39:16;;;;;;;25.15;6.10;;;;;;;;;;5033008;28;20502;-87
2022/08/03 04:41:42;;;;;;;;;;;;;;;;;;4966919;28;20278;-88
2022/08/03 04:44:08;;;;;;;16.70;4.97;;;;;;;;;;4965127;28;19914;-87
2022/08/03 04:46:36;;;;;;;16.98;5.07;;;;;;;;;;5027119;28;20031;-88
2022/08/03 04:49:02;;;;;;;18.85;5.88;;;;;;;;;;5031030;28;20080;-88
2022/08/03 04:51:29;;;;;;;16.60;5.07;;;;;;;;;;4966789;28;20082;-87
2022/08/03 04:53:55;;;;;;;17.67;5.25;;;;;;;;;;4963320;28;20118;-88
2022/08/03 04:56:20;;;;;;;22.98;6.20;;;;;;;;;;4950357;28;20041;-88
2022/08/03 04:58:46;;;;;;;21.40;5.68;;;;;;;;;;4949343;28;20483;-86
2022/08/03 05:01:12;;;;;;;18.80;4.97;;;;;;;;;;4964884;28;20146;-87
2022/08/03 05:03:39;;;;;;;23.15;5.22;;;;;;;;;;4932619;28;20050;-87
2022/08/03 05:06:05;;;;;;;15.95;4.65;;;;;;;;;;4966912;28;20083;-88
2022/08/03 05:08:31;;;;;;;29.08;6.15;;;;;;;;;;4964992;28;20105;-87
2022/08/03 05:10:57;;;;;;;20.42;4.60;;;;;;;;;;4966804;28;20047;-87
2022/08/03 05:13:23;;;;;;;20.65;5.07;;;;;;;;;;4932031;28;20053;-88
2022/08/03 05:15:49;;;;;;;20.52;4.70;;;;;;;;;;5033805;28;20045;-89
2022/08/03 05:18:15;;;;;;;23.63;4.85;;;;;;;;;;4948869;28;20035;-87
2022/08/03 05:20:41;;;;;;;24.27;6.18;;;;;;;;;;4949460;28;20484;-88
2022/08/03 05:23:07;;;;;;;23.70;5.32;;;;;;;;;;5029246;28;20229;-87
2022/08/03 05:25:33;;;;;;;21.42;4.50;;;;;;;;;;4965231;28;20042;-88
2022/08/03 05:27:59;;;;;;;21.13;4.97;;;;;;;;;;4966518;28;20039;-91
2022/08/03 05:30:26;;;;;;;17.63;4.20;;;;;;;;;;4967342;28;20022;-88
2022/08/03 05:32:52;;;;;;;20.33;4.35;;;;;;;;;;4964724;28;20134;-88
2022/08/03 05:35:18;;;;;;;17.23;5.45;;;;;;;;;;4966082;28;20065;-88
2022/08/03 05:37:44;;;;;;;23.45;4.88;;;;;;;;;;4962421;28;20066;-88
2022/08/03 05:40:10;;;;;;;15.60;4.75;;;;;;;;;;4965936;28;20134;-88
2022/08/03 05:42:37;;;;;;;16.90;4.05;;;;;;;;;;4962974;28;20034;-88
2022/08/03 05:45:12;;;;;;;19.27;4.22;;;;;;;;;;4963872;28;20067;-89
2022/08/03 05:47:38;;;;;;;15.57;3.85;;;;;;;;;;4949229;28;20543;-89
2022/08/03 05:50:04;;;;;;;21.55;4.18;;;;;;;;;;4966403;28;20050;-88
2022/08/03 05:52:30;;;;;;;17.92;4.47;;;;;;;;;;4947693;28;20138;-88
2022/08/03 05:54:56;;;;;;;25.42;4.78;;;;;;;;;;4948953;28;20547;-86
2022/08/03 05:57:22;;;;;;;22.80;4.00;;;;;;;;;;4961246;28;20035;-86
2022/08/03 05:59:48;;;;;;;24.10;4.13;;;;;;;;;;4963003;28;20049;-88
2022/08/03 06:02:14;;;;;;;22.38;4.47;;;;;;;;;;5030771;28;20044;-87
2022/08/03 06:04:40;;;;;;;18.15;3.95;;;;;;;;;;4961875;28;20307;-88
2022/08/03 06:07:06;;;;;;;24.17;4.32;;;;;;;;;;4965169;28;20027;-87
2022/08/03 06:09:32;;;;;;;19.52;4.72;;;;;;;;;;4948885;28;20110;-87
2022/08/03 06:11:58;;;;;;;17.23;4.28;;;;;;;;;;4960905;28;20513;-87
2022/08/03 06:14:24;;;;;;;22.85;4.22;;;;;;;;;;4961964;28;20051;-88
2022/08/03 06:16:50;;;;;;;14.95;3.80;;;;;;;;;;4964859;28;20034;-86
2022/08/03 06:19:16;;;;;;;22.55;4.00;;;;;;;;;;4945893;28;20031;-89
2022/08/03 06:21:42;;;;;;;23.35;3.95;;;;;;;;;;4965173;28;20080;-89
2022/08/03 06:24:08;;;;;;;26.42;4.30;;;;;;;;;;4965358;28;20039;-88
2022/08/03 06:26:34;;;;;;;26.02;5.93;;;;;;;;;;4951356;28;20030;-88
2022/08/03 06:29:00;;;;;;;17.13;4.55;;;;;;;;;;5034137;28;20111;-89
2022/08/03 06:31:28;;;;;;;20.52;4.40;;;;;;;;;;5033284;28;20710;-88
2022/08/03 06:33:54;;;;;;;21.48;4.20;;;;;;;;;;4967034;28;20019;-89
2022/08/03 06:36:20;;;;;;;21.92;4.10;;;;;;;;;;4952938;28;20035;-90
2022/08/03 06:38:47;;;;;;;21.17;4.85;;;;;;;;;;4949857;28;20133;-89
2022/08/03 06:41:13;;;;;;;24.45;4.72;;;;;;;;;;4966132;28;20118;-90
2022/08/03 06:43:39;;;;;;;18.35;4.15;;;;;;;;;;4948701;28;20209;-87
2022/08/03 06:46:05;;;;;;;24.20;4.47;;;;;;;;;;5032449;28;20039;-88
2022/08/03 06:48:31;;;;;;;24.92;4.88;;;;;;;;;;4964896;28;20049;-87
2022/08/03 06:50:58;;;;;;;30.35;4.80;;;;;;;;;;4967968;28;20129;-87
2022/08/03 06:53:24;;;;;;;22.33;4.68;;;;;;;;;;4952037;28;20026;-88
2022/08/03 06:55:51;;;;;;;24.55;4.47;;;;;;;;;;4956674;28;20085;-87
2022/08/03 06:58:17;;;;;;;25.40;5.38;;;;;;;;;;4952001;28;20139;-89
2022/08/03 07:00:43;;;;;;;20.35;4.97;;;;;;;;;;4951665;28;20137;-89
2022/08/03 07:03:09;;;;;;;25.15;4.70;;;;;;;;;;4956090;28;20031;-89
2022/08/03 07:05:35;;;;;;;24.83;5.90;;;;;;;;;;4972608;28;20019;-89
2022/08/03 07:08:02;;;;;;;24.80;4.93;;;;;;;;;;4970562;28;20442;-89
2022/08/03 07:10:28;;;;;;;22.85;5.03;;;;;;;;;;4971574;28;20023;-88
2022/08/03 07:12:54;;;;;;;26.95;4.53;;;;;;;;;;4970927;28;20023;-89
2022/08/03 07:15:20;;;;;;;28.45;4.85;;;;;;;;;;4954147;28;20027;-90
2022/08/03 07:17:46;;;;;;;23.48;4.93;;;;;;;;;;4954055;28;20077;-89
2022/08/03 07:20:14;;;;;;;21.73;4.60;;;;;;;;;;4953969;28;20040;-89
2022/08/03 07:22:40;;;;;;;23.88;4.97;;;;;;;;;;4970781;28;20253;-88
2022/08/03 07:25:06;;;;;;;19.70;5.00;;;;;;;;;;4971309;28;20026;-89
2022/08/03 07:27:32;;;;;;;19.17;4.93;;;;;;;;;;4971598;28;20043;-88
2022/08/03 07:29:58;;;;;;;19.08;4.88;;;;;;;;;;4971404;28;20031;-89
2022/08/03 07:32:25;;;;;;;28.55;5.30;;;;;;;;;;4952443;28;20035;-89
2022/08/03 07:34:51;;;;;;;23.95;5.35;;;;;;;;;;4971133;28;20022;-90
2022/08/03 07:37:17;;;;;;;18.80;4.75;;;;;;;;;;4969984;28;20027;-89
2022/08/03 07:39:43;;;;;;;15.70;4.70;;;;;;;;;;4971262;28;20031;-89
2022/08/03 07:42:09;;;;;;;18.30;5.45;;;;;;;;;;4970768;28;20031;-89
2022/08/03 07:44:35;;;;;;;19.17;5.65;;;;;;;;;;4970206;28;20026;-88
2022/08/03 07:47:01;;;;;;;26.30;5.80;;;;;;;;;;4970819;28;20034;-87
2022/08/03 07:49:27;;;;;;;28.52;11.50;;;;;;;;;;4953552;28;20034;-89
2022/08/03 07:54:38;;;;;;;24.40;4.88;;;;;;;;;;4970748;28;20046;-88
2022/08/03 07:57:05;;;;;;;22.95;5.38;;;;;;;;;;4971089;28;20034;-92
2022/08/03 07:59:31;;;;;;;27.70;5.82;;;;;;;;;;4970795;28;20133;-88
2022/08/03 08:01:57;;;;;;;21.52;5.35;;;;;;;;;;4971136;28;20058;-89
2022/08/03 08:04:23;;;;;;;23.92;5.57;;;;;;;;;;4970667;28;20445;-88
2022/08/03 08:06:49;;;;;;;21.77;5.13;;;;;;;;;;4970496;28;20027;-88
2022/08/03 08:09:15;;;;;;;14.43;4.53;;;;;;;;;;4954197;28;20593;-88
2022/08/03 08:11:41;;;;;;;21.65;5.13;;;;;;;;;;4970762;28;20035;-87
2022/08/03 08:14:08;;;;;;;18.63;5.25;;;;;;;;;;4953051;28;20043;-87
2022/08/03 08:16:33;;;;;;;21.75;4.78;;;;;;;;;;4953190;28;20035;-87
2022/08/03 08:19:00;;;;;;;17.05;4.20;;;;;;;;;;4969438;28;20035;-89
2022/08/03 08:21:26;;;;;;;20.83;4.93;;;;;;;;;;4953034;28;20049;-88
2022/08/03 08:23:53;;;;;;;19.15;5.10;;;;;;;;;;4970603;28;20129;-88
2022/08/03 08:26:19;;;;;;;21.50;5.10;;;;;;;;;;4953361;28;20031;-88
2022/08/03 08:28:44;;;;;;;16.13;4.43;;;;;;;;;;4952762;28;20096;-89
2022/08/03 08:31:10;;;;;;;21.92;5.05;;;;;;;;;;4952440;28;20134;-88
2022/08/03 08:33:36;;;;;;;18.48;4.90;;;;;;;;;;4970245;28;20026;-88
2022/08/03 08:36:03;;;;;;;17.02;4.78;;;;;;;;;;4953348;28;20035;-88
2022/08/03 08:38:28;;;;;;;24.83;5.10;;;;;;;;;;4953036;28;20129;-89
2022/08/03 08:40:55;;;;;;;21.15;5.03;;;;;;;;;;4953246;28;20066;-89
2022/08/03 08:43:21;;;;;;;23.20;5.93;;;;;;;;;;4952310;28;20090;-89
2022/08/03 08:45:51;;;;;;;22.63;5.97;;;;;;;;;;4970247;28;20066;-88
2022/08/03 08:48:22;;;;;;;22.40;5.07;;;;;;;;;;4969686;28;20059;-89
2022/08/03 08:50:51;;;;;;;22.23;5.43;;;;;;;;;;4970469;28;20544;-89
2022/08/03 08:53:17;;;;;;;24.30;5.32;;;;;;;;;;4952559;28;20452;-88
2022/08/03 08:55:46;;;;;;;23.45;5.50;;;;;;;;;;4969356;28;20790;-88
2022/08/03 08:58:13;;;;;;;24.38;5.38;;;;;;;;;;4970284;28;20042;-89
2022/08/03 09:00:39;;;;;;;25.55;6.20;;;;;;;;;;4970433;28;20047;-90
2022/08/03 09:03:05;;;;;;;22.67;6.68;;;;;;;;;;4952454;28;20039;-89
2022/08/03 09:05:32;;;;;;;18.65;6.00;;;;;;;;;;4969879;28;20031;-88
2022/08/03 09:07:58;;;;;;;27.38;6.63;;;;;;;;;;4969464;28;20066;-89
2022/08/03 09:10:24;;;;;;;27.45;7.05;;;;;;;;;;4969870;28;20074;-89
2022/08/03 09:12:51;;;;;;;24.08;7.68;;;;;;;;;;4953016;28;20059;-89
2022/08/03 09:15:20;;;;;;;20.17;7.88;;;;;;;;;;4969568;28;20031;-90
2022/08/03 09:17:46;;;;;;;32.47;8.60;;;;;;;;;;4969926;28;20387;-89
2022/08/03 09:20:12;;;;;;;27.15;7.85;;;;;;;;;;4969406;28;20491;-88
2022/08/03 09:22:53;;;;;;;19.10;7.07;;;;;;;;;;4968900;28;20675;-89
2022/08/03 09:25:19;;;;;;;23.80;7.82;;;;;;;;;;4968947;28;20118;-89
2022/08/03 09:27:45;;;;;;;24.50;8.20;;;;;;;;;;4952396;28;20051;-90
2022/08/03 09:30:13;;;;;;;23.05;8.10;;;;;;;;;;4952650;28;20041;-90
2022/08/03 09:32:39;;;;;;;19.02;6.80;;;;;;;;;;4952312;28;20046;-89
2022/08/03 09:35:05;;;;;;;25.45;6.72;;;;;;;;;;4952291;28;20459;-90
2022/08/03 09:37:31;;;;;;;31.58;7.60;;;;;;;;;;4969524;28;20023;-89
2022/08/03 09:39:57;;;;;;;25.58;7.38;;;;;;;;;;4969815;28;20432;-88
2022/08/03 09:42:23;;;;;;;24.73;6.78;;;;;;;;;;4936402;28;20035;-88
2022/08/03 09:44:51;;;;;;;20.70;6.65;;;;;;;;;;4968337;28;20479;-89
2022/08/03 09:47:27;;;;;;;21.70;6.68;;;;;;;;;;4969805;28;20038;-89
2022/08/03 09:50:07;;;;;;;28.58;7.15;;;;;;;;;;4969350;28;20393;-88
2022/08/03 09:52:34;;;;;;;25.00;7.35;;;;;;;;;;4951734;28;20037;-89
2022/08/03 09:55:01;;;;;;;19.88;6.40;;;;;;;;;;4968394;28;20023;-89
2022/08/03 09:57:29;;;;;;;21.77;6.60;;;;;;;;;;4968518;28;20031;-88
2022/08/03 10:00:05;;;;;;;26.98;7.40;;;;;;;;;;4952521;28;20047;-90
2022/08/03 10:02:31;;;;;;;28.75;6.75;;;;;;;;;;4969287;28;20394;-89
2022/08/03 10:04:57;;;;;;;23.42;6.88;;;;;;;;;;4969160;28;20406;-89
2022/08/03 10:07:24;;;;;;;20.23;6.65;;;;;;;;;;4968396;28;20122;-87
2022/08/03 10:09:54;;;;;;;23.25;6.05;;;;;;;;;;4968870;28;20374;-88
2022/08/03 10:12:20;;;;;;;19.83;7.20;;;;;;;;;;4951731;28;20034;-86
2022/08/03 10:14:47;;;;;;;21.48;6.22;;;;;;;;;;4968825;28;20178;-88
2022/08/03 10:17:13;;;;;;;20.40;6.68;;;;;;;;;;4935574;28;20038;-88
2022/08/03 10:19:40;;;;;;;25.38;6.40;;;;;;;;;;4957150;28;20015;-88
2022/08/03 10:22:18;;;;;;;22.80;6.35;;;;;;;;;;4950034;29;20109;-88
2022/08/03 10:24:50;;;;;;;23.67;5.95;;;;;;;;;;4949634;28;20027;-87
2022/08/03 10:27:16;;;;;;;24.25;6.22;;;;;;;;;;4949833;29;20077;-88
2022/08/03 10:29:45;;;;;;;21.83;6.28;;;;;;;;;;4949961;28;20028;-87
2022/08/03 10:32:34;;;;;;;16.13;4.88;;;;;;;;;;4961875;28;20115;-87
2022/08/03 10:35:08;;;;;;;18.15;6.80;;;;;;;;;;4963591;28;20413;-87
2022/08/03 10:37:37;;;;;;;16.08;4.63;;;;;;;;;;4966264;28;20432;-88
2022/08/03 10:40:04;;;;;;;21.27;5.47;;;;;;;;;;4969099;28;20054;-90
2022/08/03 10:42:30;;;;;;;14.65;4.47;;;;;;;;;;4969343;28;20039;-89
2022/08/03 10:45:02;;;;;;;18.48;4.60;;;;;;;;;;4951916;28;20046;-88
2022/08/03 10:47:29;;;;;;;15.38;4.55;;;;;;;;;;4969118;28;20110;-90
2022/08/03 10:49:56;;;;;;;14.70;4.63;;;;;;;;;;4969248;28;20030;-88
2022/08/03 10:52:22;;;;;;;17.88;3.72;;;;;;;;;;4951850;28;20070;-88
2022/08/03 10:57:52;;;;;;;18.42;4.85;;;;;;;;;;4968543;28;20108;-89
2022/08/03 11:00:19;;;;;;;18.48;4.50;;;;;;;;;;4967023;28;20051;-89
2022/08/03 11:03:05;;;;;;;21.27;4.75;;;;;;;;;;4955333;28;20096;-88
2022/08/03 11:05:33;;;;;;;12.75;3.50;;;;;;;;;;4968293;28;20088;-88
2022/08/03 11:08:18;;;;;;;12.98;4.00;;;;;;;;;;4967701;28;20080;-89
2022/08/03 11:10:45;;;;;;;16.23;4.10;;;;;;;;;;4952294;28;20050;-89
2022/08/03 11:13:14;;;;;;;22.67;3.92;;;;;;;;;;4971884;28;20458;-90
2022/08/03 11:15:42;;;;;;;19.23;3.30;;;;;;;;;;4971105;28;20043;-88
2022/08/03 11:18:10;;;;;;;11.93;3.22;;;;;;;;;;4971528;28;20274;-89
2022/08/03 11:20:45;;;;;;;12.27;3.25;;;;;;;;;;4970642;28;20076;-89
2022/08/03 11:23:11;;;;;;;13.93;3.30;;;;;;;;;;4954625;28;20050;-88
2022/08/03 11:25:56;;;;;;;16.20;3.22;;;;;;;;;;4971336;28;20039;-87
2022/08/03 11:28:28;;;;;;;14.15;3.85;;;;;;;;;;4971098;28;20026;-88
2022/08/03 11:30:54;;;;;;;13.70;3.28;;;;;;;;;;4970567;28;20027;-89
2022/08/03 11:33:29;;;;;;;13.05;3.25;;;;;;;;;;4971619;28;20373;-90
2022/08/03 11:36:00;;;;;;;11.68;3.38;;;;;;;;;;4971431;28;20094;-88
2022/08/03 11:38:26;;;;;;;11.45;3.10;;;;;;;;;;4971542;28;20031;-90
2022/08/03 11:40:52;;;;;;;15.95;3.25;;;;;;;;;;4953928;28;20035;-90
2022/08/03 11:43:25;;;;;;;12.88;3.35;;;;;;;;;;4953873;28;20037;-87
2022/08/03 11:45:56;;;;;;;17.30;3.17;;;;;;;;;;4970825;28;20034;-89
2022/08/03 11:48:22;;;;;;;14.57;3.58;;;;;;;;;;4971651;28;20499;-89
2022/08/03 11:50:49;;;;;;;13.07;4.07;;;;;;;;;;4971197;28;20030;-89
2022/08/03 11:53:16;;;;;;;20.75;4.50;;;;;;;;;;4953714;28;20179;-88
2022/08/03 11:55:45;;;;;;;16.50;4.30;;;;;;;;;;4953238;28;20110;-88
2022/08/03 11:58:18;;;;;;;17.33;4.32;;;;;;;;;;4970928;28;20030;-89
2022/08/03 12:00:44;;;;;;;13.07;3.50;;;;;;;;;;4970820;28;20058;-89
2022/08/03 12:03:12;;;;;;;17.63;3.40;;;;;;;;;;4970689;28;20038;-88
2022/08/03 12:05:40;;;;;;;12.13;3.70;;;;;;;;;;4970099;28;20041;-88
2022/08/03 12:08:06;;;;;;;19.17;3.95;;;;;;;;;;4952762;28;20066;-88
2022/08/03 12:10:32;;;;;;;16.10;3.60;;;;;;;;;;4970428;28;20026;-89
2022/08/03 12:12:59;;;;;;;11.00;3.05;;;;;;;;;;4953872;28;20053;-88
2022/08/03 12:15:29;;;;;;;13.73;2.95;;;;;;;;;;4970919;28;20033;-88
2022/08/03 12:17:55;;;;;;;11.35;3.20;;;;;;;;;;4965569;28;20119;-87
2022/08/03 12:20:23;;;;;;;12.15;4.43;;;;;;;;;;4951708;28;20057;-88
2022/08/03 12:22:49;;;;;;;13.32;3.55;;;;;;;;;;4951233;28;20062;-88
2022/08/03 12:25:26;;;;;;;11.73;3.33;;;;;;;;;;5017371;28;20121;-90
2022/08/03 12:27:53;;;;;;;13.40;3.30;;;;;;;;;;4954749;28;20035;-88
2022/08/03 12:30:19;;;;;;;20.17;3.65;;;;;;;;;;4970595;28;20448;-88
2022/08/03 12:32:45;;;;;;;28.13;4.95;;;;;;;;;;4970591;28;20026;-89
2022/08/03 12:35:25;;;;;;;11.70;3.60;;;;;;;;;;4953203;28;20059;-89
2022/08/03 12:37:51;;;;;;;;;;;;;;;;;;4970938;28;20023;-88
2022/08/03 12:40:27;;;;;;;12.10;3.92;;;;;;;;;;4969609;28;19975;-88
2022/08/03 12:42:53;;;;;;;13.10;3.53;;;;;;;;;;4953756;28;20023;-87
2022/08/03 12:45:19;;;;;;;12.93;3.67;;;;;;;;;;4971892;28;20019;-88
2022/08/03 12:47:49;;;;;;;15.60;4.18;;;;;;;;;;4954147;28;20553;-88
2022/08/03 12:50:15;;;;;;;;;;;;;;;;;;4970547;28;20548;-88
2022/08/03 12:52:44;;;;;;;10.57;3.60;;;;;;;;;;4969292;28;19914;-88
2022/08/03 12:55:18;;;;;;;11.20;3.87;;;;;;;;;;4970761;28;20498;-89
2022/08/03 12:57:44;;;;;;;11.55;4.32;;;;;;;;;;4971249;28;20027;-88
2022/08/03 13:00:12;;;;;;;11.80;3.88;;;;;;;;;;4972520;28;20270;-88
2022/08/03 13:02:38;;;;;;;10.55;3.83;;;;;;;;;;4974434;28;20035;-88
2022/08/03 13:05:10;;;;;;;11.32;3.92;;;;;;;;;;4939660;28;20077;-89
2022/08/03 13:07:43;;;;;;;16.67;4.15;;;;;;;;;;4971922;28;20441;-88
2022/08/03 13:10:10;;;;;;;15.15;4.03;;;;;;;;;;4970794;28;20034;-88
2022/08/03 13:12:49;;;;;;;12.10;3.60;;;;;;;;;;4953771;28;20034;-88
2022/08/03 13:15:16;;;;;;;10.17;3.57;;;;;;;;;;4969324;28;20067;-89
2022/08/03 13:17:42;;;;;;;10.60;3.60;;;;;;;;;;5050155;28;20282;-87
2022/08/03 13:20:08;;;;;;;12.57;3.67;;;;;;;;;;5050778;28;20029;-89
2022/08/03 13:22:34;;;;;;;12.50;3.97;;;;;;;;;;5021280;28;20047;-88
2022/08/03 13:25:01;;;;;;;10.77;3.95;;;;;;;;;;4969720;28;20030;-88
2022/08/03 13:27:28;;;;;;;9.63;2.80;;;;;;;;;;4952818;28;20057;-89
2022/08/03 13:29:55;;;;;;;8.60;2.58;;;;;;;;;;4969389;28;20106;-88
2022/08/03 13:32:21;;;;;;;9.63;3.35;;;;;;;;;;4937068;28;20034;-87
2022/08/03 13:34:47;;;;;;;8.90;3.17;;;;;;;;;;4967757;28;20106;-88
2022/08/03 13:37:13;;;;;;;12.48;3.20;;;;;;;;;;4970011;28;20480;-88
2022/08/03 13:39:39;;;;;;;15.73;4.05;;;;;;;;;;4952186;28;20031;-88
2022/08/03 13:42:05;;;;;;;14.93;3.33;;;;;;;;;;4952281;28;20602;-88
2022/08/03 13:44:32;;;;;;;12.98;2.63;;;;;;;;;;4969117;28;20397;-88
2022/08/03 13:47:01;;;;;;;9.52;3.22;;;;;;;;;;5036178;28;20030;-87
2022/08/03 13:49:28;;;;;;;9.85;2.65;;;;;;;;;;4969060;28;20042;-88
2022/08/03 13:51:54;;;;;;;12.32;2.40;;;;;;;;;;5035519;28;20503;-87
2022/08/03 13:54:21;;;;;;;16.02;2.90;;;;;;;;;;4968901;28;20033;-88
2022/08/03 13:56:54;;;;;;;9.75;2.45;;;;;;;;;;4968262;28;20029;-88
2022/08/03 13:59:20;;;;;;;10.88;2.45;;;;;;;;;;4968178;28;20037;-87
2022/08/03 14:01:47;;;;;;;8.23;2.50;;;;;;;;;;4951726;28;20066;-89
2022/08/03 14:04:12;;;;;;;9.05;2.40;;;;;;;;;;4968768;28;20050;-89
2022/08/03 14:06:38;;;;;;;9.10;2.47;;;;;;;;;;4951747;28;20042;-88
2022/08/03 14:09:05;;;;;;;13.02;2.47;;;;;;;;;;4962873;28;20050;-90
2022/08/03 14:11:30;;;;;;;10.45;2.40;;;;;;;;;;4950011;29;20502;-89
2022/08/03 14:13:56;;;;;;;9.35;2.60;;;;;;;;;;4951556;28;20114;-89
2022/08/03 14:16:23;;;;;;;11.85;2.22;;;;;;;;;;4951451;28;20038;-89
2022/08/03 14:18:48;;;;;;;15.10;2.35;;;;;;;;;;4968317;28;20098;-87
2022/08/03 14:21:15;;;;;;;8.60;2.20;;;;;;;;;;4951089;28;20146;-89
2022/08/03 14:23:40;;;;;;;12.73;2.60;;;;;;;;;;4968860;28;20107;-88
2022/08/03 14:26:08;;;;;;;14.77;2.60;;;;;;;;;;4968695;28;20172;-89
2022/08/03 14:28:35;;;;;;;11.52;2.72;;;;;;;;;;4966733;28;20115;-88
2022/08/03 14:31:01;;;;;;;6.82;2.13;;;;;;;;;;4956221;28;20137;-88
2022/08/03 14:33:27;;;;;;;7.88;2.33;;;;;;;;;;4964654;28;20027;-86
2022/08/03 14:35:53;;;;;;;11.55;2.53;;;;;;;;;;4965840;28;20027;-88
2022/08/03 14:38:19;;;;;;;10.82;2.10;;;;;;;;;;4966552;28;20031;-88
2022/08/03 14:40:45;;;;;;;10.63;2.67;;;;;;;;;;4962362;28;20039;-88
2022/08/03 14:43:11;;;;;;;10.35;2.40;;;;;;;;;;4964232;28;20034;-88
2022/08/03 14:45:38;;;;;;;6.53;1.95;;;;;;;;;;4969773;28;20038;-89